createdAt,value
2023-03-01T00:00:10.672Z,21.02
2023-03-01T00:02:37.548Z,23.58
2023-03-01T00:05:05.303Z,22.10
2023-03-01T00:07:32.045Z,25.75
2023-03-01T00:09:58.845Z,28.35
2023-03-01T00:12:25.532Z,25.25
2023-03-01T00:14:52.240Z,22.58
2023-03-01T00:17:18.978Z,24.95
2023-03-01T00:19:45.680Z,22.15
2023-03-01T00:22:12.354Z,24.30
2023-03-01T00:24:39.070Z,23.30
2023-03-01T00:27:05.721Z,22.90
2023-03-01T00:29:32.446Z,23.77
2023-03-01T00:31:59.281Z,23.30
2023-03-01T00:34:26.008Z,23.33
2023-03-01T00:36:52.713Z,23.13
2023-03-01T00:39:19.429Z,23.23
2023-03-01T00:41:46.177Z,24.83
2023-03-01T00:44:12.928Z,22.10
2023-03-01T00:46:40.087Z,22.38
2023-03-01T00:49:06.900Z,20.92
2023-03-01T00:51:34.222Z,21.42
2023-03-01T00:54:03.235Z,22.15
2023-03-01T00:56:31.418Z,22.42
2023-03-01T00:58:58.424Z,24.23
2023-03-01T01:01:31.491Z,24.27
2023-03-01T01:04:04.708Z,25.77
2023-03-01T01:06:37.519Z,22.08
2023-03-01T01:09:06.611Z,24.83
2023-03-01T01:11:34.381Z,24.42
2023-03-01T01:14:01.084Z,23.40
2023-03-01T01:16:29.520Z,22.33
2023-03-01T01:18:56.898Z,23.65
2023-03-01T01:21:25.083Z,23.73
2023-03-01T01:23:52.776Z,23.27
2023-03-01T01:26:25.135Z,25.45
2023-03-01T01:28:52.818Z,25.67
2023-03-01T01:31:20.553Z,21.88
2023-03-01T01:33:47.725Z,22.75
2023-03-01T01:36:14.455Z,23.80
2023-03-01T01:38:43.368Z,25.10
2023-03-01T01:41:14.492Z,25.90
2023-03-01T01:43:44.060Z,23.15
2023-03-01T01:46:22.583Z,23.55
2023-03-01T01:49:02.035Z,24.45
2023-03-01T01:51:39.228Z,25.60
2023-03-01T01:54:16.974Z,26.63
2023-03-01T01:56:48.922Z,25.27
2023-03-01T01:59:16.347Z,27.40
2023-03-01T02:01:44.384Z,25.00
2023-03-01T02:04:11.181Z,25.08
2023-03-01T02:06:42.901Z,24.73
2023-03-01T02:09:16.010Z,25.73
2023-03-01T02:11:44.428Z,26.63
2023-03-01T02:14:11.686Z,25.80
2023-03-01T02:16:38.590Z,27.23
2023-03-01T02:19:06.508Z,26.77
2023-03-01T02:33:03.759Z,27.00
2023-03-01T02:35:34.847Z,28.85
2023-03-01T02:38:02.723Z,25.13
2023-03-01T02:40:35.204Z,27.15
2023-03-01T02:43:02.107Z,24.95
2023-03-01T02:45:28.847Z,26.55
2023-03-01T02:47:56.849Z,28.35
2023-03-01T02:50:58.300Z,27.55
2023-03-01T02:53:34.245Z,28.30
2023-03-01T02:56:01.517Z,24.45
2023-03-01T02:58:28.214Z,29.38
2023-03-01T03:00:55.112Z,26.23
2023-03-01T03:03:23.033Z,27.20
2023-03-01T03:05:49.767Z,26.33
2023-03-01T03:08:25.132Z,29.27
2023-03-01T03:10:52.341Z,26.65
2023-03-01T03:13:20.094Z,27.30
2023-03-01T03:15:47.059Z,28.30
2023-03-01T03:18:16.914Z,24.90
2023-03-01T03:20:45.508Z,26.85
2023-03-01T03:23:12.668Z,28.08
2023-03-01T03:25:39.575Z,27.02
2023-03-01T03:28:10.536Z,29.60
2023-03-01T03:30:40.167Z,30.25
2023-03-01T03:33:07.805Z,31.05
2023-03-01T03:35:41.068Z,30.60
2023-03-01T03:38:16.484Z,29.83
2023-03-01T03:40:52.301Z,31.13
2023-03-01T03:43:21.750Z,30.67
2023-03-01T03:45:50.616Z,29.77
2023-03-01T03:48:18.131Z,28.13
2023-03-01T03:50:58.331Z,27.27
2023-03-01T03:53:27.216Z,28.17
2023-03-01T03:55:54.171Z,31.45
2023-03-01T03:58:23.707Z,29.48
2023-03-01T04:00:54.097Z,30.55
2023-03-01T04:03:21.501Z,28.92
2023-03-01T04:05:48.965Z,30.65
2023-03-01T04:08:15.727Z,28.42
2023-03-01T04:10:46.063Z,27.45
2023-03-01T04:13:16.282Z,26.85
2023-03-01T04:15:46.452Z,27.45
2023-03-01T04:18:17.733Z,29.77
2023-03-01T04:20:45.999Z,31.35
2023-03-01T04:23:20.991Z,28.90
2023-03-01T04:25:57.746Z,31.52
2023-03-01T04:28:47.142Z,29.85
2023-03-01T04:31:19.468Z,29.95
2023-03-01T04:33:54.729Z,26.98
2023-03-01T04:36:24.846Z,28.00
2023-03-01T04:38:52.969Z,29.85
2023-03-01T04:41:22.034Z,30.75
2023-03-01T04:43:49.652Z,26.65
2023-03-01T04:46:18.750Z,30.65
2023-03-01T04:48:48.187Z,27.13
2023-03-01T04:51:15.523Z,28.65
2023-03-01T04:53:43.605Z,30.60
2023-03-01T04:56:10.719Z,29.35
2023-03-01T04:58:37.595Z,31.83
2023-03-01T05:01:16.167Z,27.33
2023-03-01T05:03:44.986Z,31.10
2023-03-01T05:06:12.645Z,27.88
2023-03-01T05:08:41.034Z,30.02
2023-03-01T05:11:09.894Z,29.88
2023-03-01T05:13:38.054Z,30.67
2023-03-01T05:16:06.372Z,29.45
2023-03-01T05:18:34.473Z,29.27
2023-03-01T05:21:13.207Z,28.50
2023-03-01T05:23:40.241Z,28.42
2023-03-01T05:26:22.460Z,30.25
2023-03-01T05:28:59.548Z,28.40
2023-03-01T05:31:26.658Z,31.10
2023-03-01T05:33:53.894Z,28.45
2023-03-01T05:36:20.661Z,30.35
2023-03-01T05:38:47.355Z,30.33
2023-03-01T05:41:17.821Z,29.30
2023-03-01T05:43:45.951Z,28.83
2023-03-01T05:46:14.406Z,28.15
2023-03-01T05:48:41.462Z,29.02
2023-03-01T05:51:08.268Z,31.55
2023-03-01T05:53:34.948Z,30.17
2023-03-01T05:56:04.962Z,32.45
2023-03-01T05:58:31.846Z,30.48
2023-03-01T06:00:58.793Z,27.73
2023-03-01T06:03:25.522Z,28.73
2023-03-01T06:05:57.652Z,29.05
2023-03-01T06:08:25.319Z,27.83
2023-03-01T06:10:52.056Z,29.52
2023-03-01T06:13:18.798Z,29.52
2023-03-01T06:15:45.511Z,28.38
2023-03-01T06:18:12.270Z,34.30
2023-03-01T06:20:38.994Z,29.58
2023-03-01T06:23:05.693Z,32.08
2023-03-01T06:25:33.731Z,30.15
2023-03-01T06:28:00.891Z,29.27
2023-03-01T06:30:27.791Z,32.25
2023-03-01T06:33:01.691Z,30.10
2023-03-01T06:35:31.003Z,30.55
2023-03-01T06:37:59.411Z,29.17
2023-03-01T06:40:26.642Z,28.20
2023-03-01T06:42:53.456Z,27.50
2023-03-01T06:45:21.437Z,28.73
2023-03-01T06:47:48.802Z,27.20
2023-03-01T06:50:17.118Z,30.05
2023-03-01T06:52:45.674Z,30.33
2023-03-01T06:55:14.963Z,29.05
2023-03-01T06:57:41.824Z,28.08
2023-03-01T07:00:09.847Z,27.27
2023-03-01T07:02:36.580Z,30.77
2023-03-01T07:05:03.483Z,30.23
2023-03-01T07:07:30.192Z,27.52
2023-03-01T07:09:56.908Z,30.83
2023-03-01T07:12:23.644Z,31.00
2023-03-01T07:14:50.417Z,28.77
2023-03-01T07:17:17.210Z,28.13
2023-03-01T07:19:43.893Z,28.65
2023-03-01T07:22:10.566Z,27.92
2023-03-01T07:24:37.342Z,27.92
2023-03-01T07:27:04.302Z,32.33
2023-03-01T07:29:31.490Z,31.10
2023-03-01T07:31:58.261Z,29.50
2023-03-01T07:34:25.182Z,27.83
2023-03-01T07:36:51.936Z,30.80
2023-03-01T07:39:19.722Z,28.60
2023-03-01T07:41:46.701Z,28.80
2023-03-01T07:44:13.408Z,28.38
2023-03-01T07:46:40.094Z,31.25
2023-03-01T07:49:08.731Z,27.20
2023-03-01T07:51:35.414Z,29.05
2023-03-01T07:54:02.128Z,33.47
2023-03-01T07:56:29.326Z,28.77
2023-03-01T07:58:56.211Z,31.63
2023-03-01T08:01:23.234Z,29.88
2023-03-01T08:03:50.240Z,29.90
2023-03-01T08:06:18.293Z,29.17
2023-03-01T08:08:45.947Z,28.65
2023-03-01T08:11:14.320Z,30.73
2023-03-01T08:13:41.393Z,29.45
2023-03-01T08:16:14.059Z,30.38
2023-03-01T08:18:41.344Z,29.92
2023-03-01T08:21:13.615Z,29.60
2023-03-01T08:23:41.251Z,30.25
2023-03-01T08:26:17.950Z,28.67
2023-03-01T08:28:45.258Z,28.95
2023-03-01T08:31:25.866Z,29.25
2023-03-01T08:33:56.756Z,29.95
2023-03-01T08:36:25.609Z,29.33
2023-03-01T08:38:53.437Z,28.02
2023-03-01T08:41:20.301Z,30.20
2023-03-01T08:43:47.191Z,33.47
2023-03-01T08:46:14.562Z,30.05
2023-03-01T08:48:44.042Z,28.98
2023-03-01T08:51:12.021Z,27.63
2023-03-01T08:53:38.767Z,29.30
2023-03-01T08:56:05.810Z,32.30
2023-03-01T08:58:32.996Z,32.03
2023-03-01T09:00:59.784Z,28.35
2023-03-01T09:03:27.002Z,27.10
2023-03-01T09:05:54.459Z,27.35
2023-03-01T09:08:21.498Z,29.05
2023-03-01T09:10:48.308Z,27.23
2023-03-01T09:13:15.010Z,26.95
2023-03-01T09:15:41.733Z,30.20
2023-03-01T09:18:08.397Z,25.27
2023-03-01T09:20:35.282Z,32.13
2023-03-01T09:23:02.191Z,30.77
2023-03-01T09:25:29.308Z,28.58
2023-03-01T09:27:56.444Z,27.70
2023-03-01T09:30:23.289Z,27.80
2023-03-01T09:32:50.014Z,28.77
2023-03-01T09:35:16.836Z,29.23
2023-03-01T09:37:46.407Z,30.05
2023-03-01T09:40:19.288Z,27.23
2023-03-01T09:43:13.879Z,29.20
2023-03-01T09:45:45.056Z,20.67
2023-03-01T09:48:19.260Z,30.55
2023-03-01T09:50:49.944Z,27.73
2023-03-01T09:53:19.892Z,29.50
2023-03-01T09:55:52.921Z,28.95
2023-03-01T09:58:41.299Z,32.08
2023-03-01T10:01:32.730Z,28.30
2023-03-01T10:04:37.751Z,30.23
2023-03-01T10:07:10.568Z,28.55
2023-03-01T10:09:44.228Z,27.63
2023-03-01T10:12:18.972Z,23.20
2023-03-01T10:15:19.174Z,29.50
2023-03-01T10:18:04.200Z,29.77
2023-03-01T10:21:02.326Z,29.77
2023-03-01T10:23:32.975Z,33.42
2023-03-01T10:26:34.188Z,31.08
2023-03-01T10:29:10.135Z,31.42
2023-03-01T10:31:39.873Z,29.20
2023-03-01T10:34:17.549Z,30.38
2023-03-01T10:36:48.203Z,29.27
2023-03-01T10:39:19.840Z,30.42
2023-03-01T10:42:05.074Z,30.95
2023-03-01T10:44:47.273Z,31.08
2023-03-01T10:47:26.437Z,30.88
2023-03-01T10:49:54.435Z,28.38
2023-03-01T10:52:24.332Z,30.27
2023-03-01T10:54:59.993Z,32.30
2023-03-01T10:57:34.023Z,28.58
2023-03-01T11:00:23.463Z,31.88
2023-03-01T11:03:12.647Z,31.10
2023-03-01T11:05:55.646Z,29.33
2023-03-01T11:08:34.862Z,28.58
2023-03-01T11:11:06.792Z,30.70
2023-03-01T11:13:33.515Z,33.75
2023-03-01T11:16:07.493Z,29.75
2023-03-01T11:18:46.862Z,28.88
2023-03-01T11:21:16.146Z,32.65
2023-03-01T11:23:46.799Z,31.90
2023-03-01T11:26:16.067Z,31.77
2023-03-01T11:28:45.638Z,30.27
2023-03-01T11:31:13.749Z,30.63
2023-03-01T11:34:18.823Z,28.55
2023-03-01T11:36:54.963Z,30.75
2023-03-01T11:39:54.563Z,32.35
2023-03-01T11:42:28.760Z,31.67
2023-03-01T11:45:00.530Z,30.98
2023-03-01T11:47:53.021Z,33.22
2023-03-01T11:50:36.362Z,32.13
2023-03-01T11:53:32.032Z,28.75
2023-03-01T11:56:17.613Z,31.33
2023-03-01T11:58:52.639Z,27.83
2023-03-01T12:01:48.303Z,32.10
2023-03-01T12:04:48.701Z,28.33
2023-03-01T12:07:37.915Z,31.75
2023-03-01T12:10:32.928Z,27.45
2023-03-01T12:13:24.108Z,32.17
2023-03-01T12:16:08.417Z,29.60
2023-03-01T12:18:52.476Z,26.63
2023-03-01T12:22:00.144Z,20.40
2023-03-01T12:24:55.505Z,29.63
2023-03-01T12:27:50.970Z,27.88
2023-03-01T12:30:20.917Z,31.70
2023-03-01T12:33:18.948Z,29.83
2023-03-01T12:35:59.316Z,28.88
2023-03-01T12:38:58.773Z,34.30
2023-03-01T12:41:53.542Z,26.05
2023-03-01T12:44:23.242Z,26.58
2023-03-01T12:46:58.469Z,30.17
2023-03-01T12:49:32.235Z,29.42
2023-03-01T12:52:17.719Z,28.70
2023-03-01T12:54:46.095Z,24.23
2023-03-01T12:57:27.304Z,27.08
2023-03-01T13:00:19.427Z,27.92
2023-03-01T13:03:15.451Z,29.58
2023-03-01T13:05:57.592Z,26.63
2023-03-01T13:08:44.828Z,28.45
2023-03-01T13:11:31.873Z,25.98
2023-03-01T13:14:24.128Z,27.17
2023-03-01T13:16:54.784Z,27.30
2023-03-01T13:19:24.648Z,24.77
2023-03-01T13:21:55.242Z,27.75
2023-03-01T13:24:39.721Z,29.08
2023-03-01T13:27:09.649Z,25.67
2023-03-01T13:29:46.661Z,25.67
2023-03-01T13:32:34.624Z,31.02
2023-03-01T13:35:20.674Z,28.77
2023-03-01T13:37:47.949Z,32.13
2023-03-01T13:40:19.603Z,24.83
2023-03-01T13:42:59.261Z,27.58
2023-03-01T13:45:44.060Z,26.33
2023-03-01T13:48:24.142Z,24.17
2023-03-01T13:50:56.925Z,27.05
2023-03-01T13:53:27.385Z,27.25
2023-03-01T13:55:59.830Z,26.05
2023-03-01T13:58:53.996Z,26.05
2023-03-01T14:01:28.583Z,24.70
2023-03-01T14:03:56.543Z,24.65
2023-03-01T14:06:29.412Z,22.75
2023-03-01T14:09:32.498Z,23.80
2023-03-01T14:12:46.657Z,22.67
2023-03-01T14:15:37.462Z,22.50
2023-03-01T14:18:21.498Z,21.42
2023-03-01T14:20:52.303Z,20.87
2023-03-01T14:23:24.455Z,21.95
2023-03-01T14:25:59.060Z,25.27
2023-03-01T14:28:27.914Z,23.75
2023-03-01T14:30:57.396Z,23.80
2023-03-01T14:33:25.621Z,25.77
2023-03-01T14:36:04.595Z,24.92
2023-03-01T14:38:39.436Z,27.67
2023-03-01T14:41:16.083Z,27.15
2023-03-01T14:43:45.868Z,27.58
2023-03-01T14:46:25.484Z,25.42
2023-03-01T14:49:02.157Z,26.25
2023-03-01T14:51:29.291Z,24.75
2023-03-01T14:53:56.971Z,25.88
2023-03-01T14:56:23.641Z,22.02
2023-03-01T14:58:58.752Z,25.33
2023-03-01T15:01:26.011Z,25.45
2023-03-01T15:03:53.181Z,25.52
2023-03-01T15:06:23.149Z,25.63
2023-03-01T15:08:53.189Z,25.98
2023-03-01T15:11:31.768Z,22.83
2023-03-01T15:13:59.898Z,23.23
2023-03-01T15:16:33.988Z,23.77
2023-03-01T15:19:06.963Z,25.92
2023-03-01T15:21:35.395Z,22.35
2023-03-01T15:24:12.709Z,29.48
2023-03-01T15:26:43.363Z,26.60
2023-03-01T15:29:22.229Z,28.17
2023-03-01T15:32:01.578Z,27.75
2023-03-01T15:34:40.526Z,26.73
2023-03-01T15:37:39.005Z,22.95
2023-03-01T15:40:50.052Z,30.25
2023-03-01T15:43:39.296Z,27.30
2023-03-01T15:46:06.187Z,28.02
2023-03-01T15:48:33.018Z,29.55
2023-03-01T15:51:00.609Z,29.58
2023-03-01T15:53:28.715Z,30.52
2023-03-01T15:55:55.450Z,29.45
2023-03-01T15:58:26.906Z,30.88
2023-03-01T16:01:01.206Z,31.55
2023-03-01T16:03:29.142Z,29.73
2023-03-01T16:05:55.931Z,28.13
2023-03-01T16:08:22.674Z,26.35
2023-03-01T16:10:52.025Z,25.48
2023-03-01T16:13:18.880Z,31.83
2023-03-01T16:15:45.656Z,27.67
2023-03-01T16:18:12.794Z,27.92
2023-03-01T16:20:41.090Z,29.27
2023-03-01T16:23:11.405Z,30.02
2023-03-01T16:25:38.866Z,28.33
2023-03-01T16:28:10.218Z,27.88
2023-03-01T16:30:38.198Z,36.83
2023-03-01T16:33:19.216Z,30.98
2023-03-01T16:35:53.012Z,30.65
2023-03-01T16:38:19.884Z,30.02
2023-03-01T16:40:52.494Z,29.33
2023-03-01T16:43:19.469Z,31.42
2023-03-01T16:45:47.381Z,35.15
2023-03-01T16:48:14.464Z,33.35
2023-03-01T16:50:41.394Z,31.65
2023-03-01T16:53:08.271Z,30.98
2023-03-01T16:55:35.152Z,34.45
2023-03-01T16:58:02.261Z,32.05
2023-03-01T17:00:29.142Z,34.67
2023-03-01T17:02:55.954Z,28.67
2023-03-01T17:05:24.840Z,28.20
2023-03-01T17:07:52.003Z,34.40
2023-03-01T17:10:18.796Z,32.72
2023-03-01T17:12:45.559Z,31.45
2023-03-01T17:15:13.001Z,37.47
2023-03-01T17:17:39.940Z,38.80
2023-03-01T17:20:07.067Z,39.28
2023-03-01T17:22:33.819Z,37.55
2023-03-01T17:25:00.963Z,36.03
2023-03-01T17:27:27.757Z,37.28
2023-03-01T17:29:54.506Z,32.65
2023-03-01T17:32:21.509Z,33.80
2023-03-01T17:34:48.283Z,33.30
2023-03-01T17:37:15.083Z,34.33
2023-03-01T17:39:42.011Z,30.80
2023-03-01T17:42:08.880Z,32.50
2023-03-01T17:44:35.859Z,29.35
2023-03-01T17:47:04.108Z,29.85
2023-03-01T17:49:31.867Z,31.88
2023-03-01T17:51:59.077Z,31.25
2023-03-01T17:54:25.818Z,33.55
2023-03-01T17:56:52.769Z,33.03
2023-03-01T17:59:19.553Z,32.35
2023-03-01T18:01:47.027Z,31.60
2023-03-01T18:04:14.225Z,31.20
2023-03-01T18:06:40.999Z,31.23
2023-03-01T18:09:08.503Z,33.13
2023-03-01T18:11:36.280Z,32.03
2023-03-01T18:14:03.910Z,34.47
2023-03-01T18:16:32.064Z,35.17
2023-03-01T18:19:00.553Z,35.03
2023-03-01T18:21:28.493Z,35.38
2023-03-01T18:23:55.542Z,31.23
2023-03-01T18:26:24.933Z,46.92
2023-03-01T18:28:52.704Z,43.95
2023-03-01T18:31:22.336Z,48.75
2023-03-01T18:33:51.483Z,39.53
2023-03-01T18:36:24.646Z,37.75
2023-03-01T18:38:53.856Z,33.92
2023-03-01T18:41:20.534Z,32.75
2023-03-01T18:43:47.269Z,31.10
2023-03-01T18:46:14.260Z,37.42
2023-03-01T18:48:41.011Z,36.90
2023-03-01T18:51:14.200Z,38.08
2023-03-01T18:53:41.345Z,34.65
2023-03-01T18:56:09.434Z,43.05
2023-03-01T18:58:37.205Z,45.45
2023-03-01T19:01:06.425Z,42.05
2023-03-01T19:03:33.648Z,40.75
2023-03-01T19:06:05.146Z,45.17
2023-03-01T19:08:31.950Z,45.83
2023-03-01T19:11:00.431Z,40.78
2023-03-01T19:13:27.250Z,40.28
2023-03-01T19:16:06.665Z,41.35
2023-03-01T19:18:34.118Z,40.30
2023-03-01T19:21:04.184Z,39.63
2023-03-01T19:23:34.979Z,40.40
2023-03-01T19:26:10.133Z,42.20
2023-03-01T19:28:39.584Z,41.33
2023-03-01T19:31:10.369Z,37.63
2023-03-01T19:33:37.687Z,41.05
2023-03-01T19:36:05.806Z,37.50
2023-03-01T19:38:32.533Z,40.72
2023-03-01T19:40:59.355Z,43.75
2023-03-01T19:43:26.054Z,37.58
2023-03-01T19:45:54.272Z,36.58
2023-03-01T19:48:22.002Z,37.15
2023-03-01T19:50:49.156Z,38.08
2023-03-01T19:53:16.117Z,36.50
2023-03-01T19:55:43.008Z,39.75
2023-03-01T19:58:10.728Z,37.78
2023-03-01T20:00:39.378Z,39.95
2023-03-01T20:03:06.727Z,37.55
2023-03-01T20:05:35.231Z,35.63
2023-03-01T20:08:02.325Z,38.17
2023-03-01T20:10:31.390Z,35.88
2023-03-01T20:12:58.347Z,36.45
2023-03-01T20:15:25.320Z,36.97
2023-03-01T20:17:52.025Z,36.97
2023-03-01T20:20:18.818Z,34.22
2023-03-01T20:22:45.568Z,42.63
2023-03-01T20:25:12.501Z,36.05
2023-03-01T20:27:39.596Z,37.05
2023-03-01T20:30:07.138Z,39.72
2023-03-01T20:32:34.367Z,39.15
2023-03-01T20:35:01.093Z,40.30
2023-03-01T20:37:27.787Z,36.72
2023-03-01T20:39:55.590Z,41.10
2023-03-01T20:42:22.281Z,41.42
2023-03-01T20:44:49.019Z,38.38
2023-03-01T20:47:16.083Z,38.08
2023-03-01T20:49:42.787Z,39.38
2023-03-01T20:52:09.495Z,36.17
2023-03-01T20:54:36.323Z,39.70
2023-03-01T20:57:03.159Z,39.80
2023-03-01T20:59:29.827Z,39.25
2023-03-01T21:01:56.537Z,41.15
2023-03-01T21:04:23.234Z,42.17
2023-03-01T21:06:49.942Z,40.13
2023-03-01T21:09:17.221Z,40.65
2023-03-01T21:11:44.163Z,38.20
2023-03-01T21:14:12.479Z,38.92
2023-03-01T21:16:39.218Z,40.83
2023-03-01T21:19:06.026Z,37.08
2023-03-01T21:21:32.812Z,35.25
2023-03-01T21:23:59.670Z,37.28
2023-03-01T21:26:27.619Z,34.67
2023-03-01T21:29:02.860Z,38.05
2023-03-01T21:31:33.908Z,37.92
2023-03-01T21:34:04.299Z,41.67
2023-03-01T21:36:31.968Z,38.88
2023-03-01T21:39:01.742Z,38.95
2023-03-01T21:41:31.740Z,35.28
2023-03-01T21:44:00.848Z,35.58
2023-03-01T21:46:30.902Z,37.08
2023-03-01T21:48:58.732Z,35.83
2023-03-01T21:51:27.877Z,32.85
2023-03-01T21:53:55.847Z,36.78
2023-03-01T21:56:25.755Z,36.60
2023-03-01T21:58:53.287Z,35.47
2023-03-01T22:01:25.723Z,31.70
2023-03-01T22:03:52.932Z,32.90
2023-03-01T22:06:22.899Z,34.15
2023-03-01T22:08:56.871Z,36.00
2023-03-01T22:11:26.079Z,26.40
2023-03-01T22:13:55.476Z,37.85
2023-03-01T22:16:25.194Z,34.08
2023-03-01T22:18:52.451Z,34.47
2023-03-01T22:21:19.639Z,35.78
2023-03-01T22:23:46.409Z,36.85
2023-03-01T22:26:32.326Z,35.00
2023-03-01T22:29:01.048Z,36.53
2023-03-01T22:31:28.426Z,35.22
2023-03-01T22:33:56.051Z,33.58
2023-03-01T22:36:23.022Z,36.55
2023-03-01T22:38:49.813Z,35.17
2023-03-01T22:41:16.650Z,34.67
2023-03-01T22:43:43.460Z,35.13
2023-03-01T22:46:16.117Z,34.42
2023-03-01T22:48:42.901Z,35.10
2023-03-01T22:51:17.858Z,33.75
2023-03-01T22:53:44.804Z,35.42
2023-03-01T22:56:16.315Z,37.58
2023-03-01T22:58:43.379Z,36.60
2023-03-01T23:01:12.003Z,36.72
2023-03-01T23:03:39.456Z,35.30
2023-03-01T23:06:06.836Z,32.92
2023-03-01T23:08:34.019Z,34.90
2023-03-01T23:11:00.987Z,35.70
2023-03-01T23:13:27.831Z,34.22
2023-03-01T23:15:58.617Z,33.00
2023-03-01T23:18:25.453Z,36.60
2023-03-01T23:20:52.185Z,35.88
2023-03-01T23:23:18.862Z,34.03
2023-03-01T23:25:56.513Z,37.95
2023-03-01T23:28:24.332Z,33.92
2023-03-01T23:31:03.707Z,35.65
2023-03-01T23:33:37.844Z,34.20
2023-03-01T23:36:06.190Z,39.83
2023-03-01T23:38:33.074Z,33.67
2023-03-01T23:41:00.117Z,33.70
2023-03-01T23:43:26.824Z,34.38
2023-03-01T23:45:54.281Z,34.15
2023-03-01T23:48:21.119Z,34.13
2023-03-01T23:50:48.856Z,32.20
2023-03-01T23:53:18.087Z,35.63
2023-03-01T23:55:51.728Z,35.78
2023-03-01T23:58:19.961Z,35.63
